Aerosim Flight Academy

METAR

KSFB 100053Z 26011KT 10SM CLR 27/19 A2978 RMK AO2 SLP084 T02720194

TAF

TAF AMD KSFB 092113Z 0921/1018 26014G21KT P6SM FEW050 FM100000 27012KT P6SM SCT030 SCT250 FM100800 26007KT P6SM SCT008 BKN015 FM101400 34012KT P6SM FEW015 BKN025 FM101600 02012G22KT P6SM SCT030 BKN040